sensor_id;sensor_type;location;lat;lon;timestamp;pressure;altitude;pressure_sealevel;temperature;humidity
4199;BME280;2113;50.946;14.610;2023-02-04T00:00:32;97007.19;;;6.16;64.20
4199;BME280;2113;50.946;14.610;2023-02-04T00:03:06;97027.31;;;6.82;61.71
4199;BME280;2113;50.946;14.610;2023-02-04T00:05:34;97033.63;;;6.69;62.20
4199;BME280;2113;50.946;14.610;2023-02-04T00:08:03;97031.03;;;6.28;64.18
4199;BME280;2113;50.946;14.610;2023-02-04T00:10:31;97074.63;;;5.99;62.39
4199;BME280;2113;50.946;14.610;2023-02-04T00:13:00;97076.97;;;5.61;62.25
4199;BME280;2113;50.946;14.610;2023-02-04T00:15:28;97090.69;;;5.63;60.69
4199;BME280;2113;50.946;14.610;2023-02-04T00:17:57;97093.38;;;6.08;60.20
4199;BME280;2113;50.946;14.610;2023-02-04T00:20:27;97101.19;;;5.53;61.00
4199;BME280;2113;50.946;14.610;2023-02-04T00:22:56;97104.72;;;6.00;59.38
4199;BME280;2113;50.946;14.610;2023-02-04T00:25:24;97111.59;;;5.99;59.48
4199;BME280;2113;50.946;14.610;2023-02-04T00:27:53;97119.75;;;5.75;60.36
4199;BME280;2113;50.946;14.610;2023-02-04T00:30:21;97125.72;;;5.22;60.84
4199;BME280;2113;50.946;14.610;2023-02-04T00:32:49;97141.06;;;5.32;59.93
4199;BME280;2113;50.946;14.610;2023-02-04T00:35:20;97156.63;;;5.25;60.35
4199;BME280;2113;50.946;14.610;2023-02-04T00:37:50;97165.44;;;5.07;60.02
4199;BME280;2113;50.946;14.610;2023-02-04T00:40:18;97171.78;;;5.47;59.48
4199;BME280;2113;50.946;14.610;2023-02-04T00:42:47;97157.63;;;5.71;58.42
4199;BME280;2113;50.946;14.610;2023-02-04T00:45:15;97172.84;;;5.32;59.08
4199;BME280;2113;50.946;14.610;2023-02-04T00:47:44;97185.41;;;5.55;59.08
4199;BME280;2113;50.946;14.610;2023-02-04T00:50:12;97191.94;;;5.17;59.88
4199;BME280;2113;50.946;14.610;2023-02-04T00:52:42;97205.09;;;4.97;61.14
4199;BME280;2113;50.946;14.610;2023-02-04T00:55:12;97211.78;;;5.12;60.69
4199;BME280;2113;50.946;14.610;2023-02-04T00:57:42;97221.38;;;4.99;60.17
4199;BME280;2113;50.946;14.610;2023-02-04T01:00:14;97229.78;;;5.15;59.33
4199;BME280;2113;50.946;14.610;2023-02-04T01:02:43;97221.91;;;5.27;59.31
4199;BME280;2113;50.946;14.610;2023-02-04T01:05:12;97223.41;;;5.42;61.76
4199;BME280;2113;50.946;14.610;2023-02-04T01:07:40;97229.84;;;5.09;63.60
4199;BME280;2113;50.946;14.610;2023-02-04T01:10:09;97239.97;;;4.48;67.47
4199;BME280;2113;50.946;14.610;2023-02-04T01:12:40;97243.41;;;4.47;70.36
4199;BME280;2113;50.946;14.610;2023-02-04T01:15:09;57013.78;;;-145.60;100.00
4199;BME280;2113;50.946;14.610;2023-02-04T01:17:37;57013.78;;;-145.60;100.00
4199;BME280;2113;50.946;14.610;2023-02-04T01:20:08;57013.78;;;-145.60;100.00
4199;BME280;2113;50.946;14.610;2023-02-04T01:22:37;57013.78;;;-145.60;100.00
4199;BME280;2113;50.946;14.610;2023-02-04T01:25:06;57013.78;;;-145.60;100.00
4199;BME280;2113;50.946;14.610;2023-02-04T01:27:43;57013.78;;;-145.60;100.00
4199;BME280;2113;50.946;14.610;2023-02-04T01:30:13;57013.78;;;-145.60;100.00
4199;BME280;2113;50.946;14.610;2023-02-04T01:32:42;57013.78;;;-145.60;100.00
4199;BME280;2113;50.946;14.610;2023-02-04T01:35:11;57013.78;;;-145.60;100.00
4199;BME280;2113;50.946;14.610;2023-02-04T01:37:39;57013.78;;;-145.60;100.00
4199;BME280;2113;50.946;14.610;2023-02-04T01:40:08;57013.78;;;-145.60;100.00
4199;BME280;2113;50.946;14.610;2023-02-04T01:42:37;57013.78;;;-145.60;100.00
4199;BME280;2113;50.946;14.610;2023-02-04T01:45:09;57013.78;;;-145.60;100.00
4199;BME280;2113;50.946;14.610;2023-02-04T01:47:38;57013.78;;;-145.60;100.00
4199;BME280;2113;50.946;14.610;2023-02-04T01:50:09;57013.78;;;-145.60;100.00
4199;BME280;2113;50.946;14.610;2023-02-04T01:52:39;57013.78;;;-145.60;100.00
4199;BME280;2113;50.946;14.610;2023-02-04T01:55:12;57013.78;;;-145.60;100.00
4199;BME280;2113;50.946;14.610;2023-02-04T01:57:42;57013.78;;;-145.60;100.00
4199;BME280;2113;50.946;14.610;2023-02-04T02:00:16;57013.78;;;-145.60;100.00
4199;BME280;2113;50.946;14.610;2023-02-04T02:02:47;57013.78;;;-145.60;100.00
4199;BME280;2113;50.946;14.610;2023-02-04T02:05:19;57013.78;;;-145.60;100.00
4199;BME280;2113;50.946;14.610;2023-02-04T02:07:52;57013.78;;;-145.60;100.00
4199;BME280;2113;50.946;14.610;2023-02-04T02:10:21;57013.78;;;-145.60;100.00
4199;BME280;2113;50.946;14.610;2023-02-04T02:12:50;57013.78;;;-145.60;100.00
4199;BME280;2113;50.946;14.610;2023-02-04T02:15:20;57013.78;;;-145.60;100.00
4199;BME280;2113;50.946;14.610;2023-02-04T02:17:49;57013.78;;;-145.60;100.00
4199;BME280;2113;50.946;14.610;2023-02-04T02:20:20;57013.78;;;-145.60;100.00
4199;BME280;2113;50.946;14.610;2023-02-04T02:22:57;57013.78;;;-145.60;100.00
4199;BME280;2113;50.946;14.610;2023-02-04T02:25:28;57013.78;;;-145.60;100.00
4199;BME280;2113;50.946;14.610;2023-02-04T02:27:57;57013.78;;;-145.60;100.00
4199;BME280;2113;50.946;14.610;2023-02-04T02:30:27;57013.78;;;-145.60;100.00
4199;BME280;2113;50.946;14.610;2023-02-04T02:32:57;57013.78;;;-145.60;100.00
4199;BME280;2113;50.946;14.610;2023-02-04T02:35:26;57013.78;;;-145.60;100.00
4199;BME280;2113;50.946;14.610;2023-02-04T02:37:56;57013.78;;;-145.60;100.00
4199;BME280;2113;50.946;14.610;2023-02-04T02:40:24;57013.78;;;-145.60;100.00
4199;BME280;2113;50.946;14.610;2023-02-04T02:42:54;57013.78;;;-145.60;100.00
4199;BME280;2113;50.946;14.610;2023-02-04T02:45:25;57013.78;;;-145.60;100.00
4199;BME280;2113;50.946;14.610;2023-02-04T02:47:54;57013.78;;;-145.60;100.00
4199;BME280;2113;50.946;14.610;2023-02-04T02:50:26;57013.78;;;-145.60;100.00
4199;BME280;2113;50.946;14.610;2023-02-04T02:52:55;57013.78;;;-145.60;100.00
4199;BME280;2113;50.946;14.610;2023-02-04T02:55:26;57013.78;;;-145.60;100.00
4199;BME280;2113;50.946;14.610;2023-02-04T02:57:57;57013.78;;;-145.60;100.00
4199;BME280;2113;50.946;14.610;2023-02-04T03:00:27;57013.78;;;-145.60;100.00
4199;BME280;2113;50.946;14.610;2023-02-04T03:03:00;57013.78;;;-145.60;100.00
4199;BME280;2113;50.946;14.610;2023-02-04T03:05:34;57013.78;;;-145.60;100.00
4199;BME280;2113;50.946;14.610;2023-02-04T03:08:04;57013.78;;;-145.60;100.00
4199;BME280;2113;50.946;14.610;2023-02-04T03:10:33;57013.78;;;-145.60;100.00
4199;BME280;2113;50.946;14.610;2023-02-04T03:13:03;57013.78;;;-145.60;100.00
4199;BME280;2113;50.946;14.610;2023-02-04T03:15:32;57013.78;;;-145.60;100.00
4199;BME280;2113;50.946;14.610;2023-02-04T03:18:01;57013.78;;;-145.60;100.00
4199;BME280;2113;50.946;14.610;2023-02-04T03:20:30;57013.78;;;-145.60;100.00
4199;BME280;2113;50.946;14.610;2023-02-04T03:22:59;57013.78;;;-145.60;100.00
4199;BME280;2113;50.946;14.610;2023-02-04T03:25:27;57013.78;;;-145.60;100.00
4199;BME280;2113;50.946;14.610;2023-02-04T03:27:57;57013.78;;;-145.60;100.00
4199;BME280;2113;50.946;14.610;2023-02-04T03:30:27;57013.78;;;-145.60;100.00
4199;BME280;2113;50.946;14.610;2023-02-04T03:32:56;57013.78;;;-145.60;100.00
4199;BME280;2113;50.946;14.610;2023-02-04T03:35:25;57013.78;;;-145.60;100.00
4199;BME280;2113;50.946;14.610;2023-02-04T03:37:53;57013.78;;;-145.60;100.00
4199;BME280;2113;50.946;14.610;2023-02-04T03:40:21;57013.78;;;-145.60;100.00
4199;BME280;2113;50.946;14.610;2023-02-04T03:42:50;57013.78;;;-145.60;100.00
4199;BME280;2113;50.946;14.610;2023-02-04T03:45:18;57013.78;;;-145.60;100.00
4199;BME280;2113;50.946;14.610;2023-02-04T03:47:48;57013.78;;;-145.60;100.00
4199;BME280;2113;50.946;14.610;2023-02-04T03:50:17;57013.78;;;-145.60;100.00
4199;BME280;2113;50.946;14.610;2023-02-04T03:52:45;57013.78;;;-145.60;100.00
4199;BME280;2113;50.946;14.610;2023-02-04T03:55:14;57013.78;;;-145.60;100.00
4199;BME280;2113;50.946;14.610;2023-02-04T03:57:43;57013.78;;;-145.60;100.00
4199;BME280;2113;50.946;14.610;2023-02-04T04:00:12;57013.78;;;-145.60;100.00
4199;BME280;2113;50.946;14.610;2023-02-04T04:02:40;57013.78;;;-145.60;100.00
4199;BME280;2113;50.946;14.610;2023-02-04T04:05:12;57013.78;;;-145.60;100.00
4199;BME280;2113;50.946;14.610;2023-02-04T04:07:43;57013.78;;;-145.60;100.00
4199;BME280;2113;50.946;14.610;2023-02-04T04:10:12;57013.78;;;-145.60;100.00
4199;BME280;2113;50.946;14.610;2023-02-04T04:12:40;57013.78;;;-145.60;100.00
4199;BME280;2113;50.946;14.610;2023-02-04T04:15:08;57013.78;;;-145.60;100.00
4199;BME280;2113;50.946;14.610;2023-02-04T04:17:37;57013.78;;;-145.60;100.00
4199;BME280;2113;50.946;14.610;2023-02-04T04:20:05;57013.78;;;-145.60;100.00
4199;BME280;2113;50.946;14.610;2023-02-04T04:22:35;57013.78;;;-145.60;100.00
4199;BME280;2113;50.946;14.610;2023-02-04T04:25:03;57013.78;;;-145.60;100.00
4199;BME280;2113;50.946;14.610;2023-02-04T04:27:32;57013.78;;;-145.60;100.00
4199;BME280;2113;50.946;14.610;2023-02-04T04:30:00;57013.78;;;-145.60;100.00
4199;BME280;2113;50.946;14.610;2023-02-04T04:32:28;57013.78;;;-145.60;100.00
4199;BME280;2113;50.946;14.610;2023-02-04T04:34:57;57013.78;;;-145.60;100.00
4199;BME280;2113;50.946;14.610;2023-02-04T04:37:25;57013.78;;;-145.60;100.00
4199;BME280;2113;50.946;14.610;2023-02-04T04:39:55;57013.78;;;-145.60;100.00
4199;BME280;2113;50.946;14.610;2023-02-04T04:42:23;57013.78;;;-145.60;100.00
4199;BME280;2113;50.946;14.610;2023-02-04T04:44:52;57013.78;;;-145.60;100.00
4199;BME280;2113;50.946;14.610;2023-02-04T04:47:20;57013.78;;;-145.60;100.00
4199;BME280;2113;50.946;14.610;2023-02-04T04:49:48;57013.78;;;-145.60;100.00
4199;BME280;2113;50.946;14.610;2023-02-04T04:52:16;57013.78;;;-145.60;100.00
4199;BME280;2113;50.946;14.610;2023-02-04T04:54:44;57013.78;;;-145.60;100.00
4199;BME280;2113;50.946;14.610;2023-02-04T04:57:14;57013.78;;;-145.60;100.00
4199;BME280;2113;50.946;14.610;2023-02-04T04:59:42;57013.78;;;-145.60;100.00
4199;BME280;2113;50.946;14.610;2023-02-04T05:02:10;57013.78;;;-145.60;100.00
4199;BME280;2113;50.946;14.610;2023-02-04T05:04:39;57013.78;;;-145.60;100.00
4199;BME280;2113;50.946;14.610;2023-02-04T05:07:07;57013.78;;;-145.60;100.00
4199;BME280;2113;50.946;14.610;2023-02-04T05:09:35;57013.78;;;-145.60;100.00
4199;BME280;2113;50.946;14.610;2023-02-04T05:12:04;57013.78;;;-145.60;100.00
4199;BME280;2113;50.946;14.610;2023-02-04T05:14:34;57013.78;;;-145.60;100.00
4199;BME280;2113;50.946;14.610;2023-02-04T05:17:02;57013.78;;;-145.60;100.00
4199;BME280;2113;50.946;14.610;2023-02-04T05:19:30;57013.78;;;-145.60;100.00
4199;BME280;2113;50.946;14.610;2023-02-04T05:21:58;57013.78;;;-145.60;100.00
4199;BME280;2113;50.946;14.610;2023-02-04T05:24:27;57013.78;;;-145.60;100.00
4199;BME280;2113;50.946;14.610;2023-02-04T05:26:55;57013.78;;;-145.60;100.00
4199;BME280;2113;50.946;14.610;2023-02-04T05:29:23;57013.78;;;-145.60;100.00
4199;BME280;2113;50.946;14.610;2023-02-04T05:31:53;57013.78;;;-145.60;100.00
4199;BME280;2113;50.946;14.610;2023-02-04T05:34:21;57013.78;;;-145.60;100.00
4199;BME280;2113;50.946;14.610;2023-02-04T05:36:49;57013.78;;;-145.60;100.00
4199;BME280;2113;50.946;14.610;2023-02-04T05:39:18;57013.78;;;-145.60;100.00
4199;BME280;2113;50.946;14.610;2023-02-04T05:41:46;57013.78;;;-145.60;100.00
4199;BME280;2113;50.946;14.610;2023-02-04T05:44:14;57013.78;;;-145.60;100.00
4199;BME280;2113;50.946;14.610;2023-02-04T05:46:43;57013.78;;;-145.60;100.00
4199;BME280;2113;50.946;14.610;2023-02-04T05:49:12;57013.78;;;-145.60;100.00
4199;BME280;2113;50.946;14.610;2023-02-04T05:51:40;57013.78;;;-145.60;100.00
4199;BME280;2113;50.946;14.610;2023-02-04T05:54:08;57013.78;;;-145.60;100.00
4199;BME280;2113;50.946;14.610;2023-02-04T05:56:37;57013.78;;;-145.60;100.00
4199;BME280;2113;50.946;14.610;2023-02-04T05:59:05;57013.78;;;-145.60;100.00
4199;BME280;2113;50.946;14.610;2023-02-04T06:01:33;57013.78;;;-145.60;100.00
4199;BME280;2113;50.946;14.610;2023-02-04T06:04:02;57013.78;;;-145.60;100.00
4199;BME280;2113;50.946;14.610;2023-02-04T06:06:31;57013.78;;;-145.60;100.00
4199;BME280;2113;50.946;14.610;2023-02-04T06:09:00;57013.78;;;-145.60;100.00
4199;BME280;2113;50.946;14.610;2023-02-04T06:11:28;57013.78;;;-145.60;100.00
4199;BME280;2113;50.946;14.610;2023-02-04T06:13:57;57013.78;;;-145.60;100.00
4199;BME280;2113;50.946;14.610;2023-02-04T06:16:25;57013.78;;;-145.60;100.00
4199;BME280;2113;50.946;14.610;2023-02-04T06:18:54;57013.78;;;-145.60;100.00
4199;BME280;2113;50.946;14.610;2023-02-04T06:21:22;57013.78;;;-145.60;100.00
4199;BME280;2113;50.946;14.610;2023-02-04T06:23:52;57013.78;;;-145.60;100.00
4199;BME280;2113;50.946;14.610;2023-02-04T06:26:20;57013.78;;;-145.60;100.00
4199;BME280;2113;50.946;14.610;2023-02-04T06:28:49;57013.78;;;-145.60;100.00
4199;BME280;2113;50.946;14.610;2023-02-04T06:31:17;57013.78;;;-145.60;100.00
4199;BME280;2113;50.946;14.610;2023-02-04T06:33:46;57013.78;;;-145.60;100.00
4199;BME280;2113;50.946;14.610;2023-02-04T06:36:14;57013.78;;;-145.60;100.00
4199;BME280;2113;50.946;14.610;2023-02-04T06:38:43;57013.78;;;-145.60;100.00
4199;BME280;2113;50.946;14.610;2023-02-04T06:41:13;57013.78;;;-145.60;100.00
4199;BME280;2113;50.946;14.610;2023-02-04T06:43:41;57013.78;;;-145.60;100.00
4199;BME280;2113;50.946;14.610;2023-02-04T06:46:09;57013.78;;;-145.60;100.00
4199;BME280;2113;50.946;14.610;2023-02-04T06:48:38;57013.78;;;-145.60;100.00
4199;BME280;2113;50.946;14.610;2023-02-04T06:51:06;57013.78;;;-145.60;100.00
4199;BME280;2113;50.946;14.610;2023-02-04T06:53:35;57013.78;;;-145.60;100.00
4199;BME280;2113;50.946;14.610;2023-02-04T06:56:05;57013.78;;;-145.60;100.00
4199;BME280;2113;50.946;14.610;2023-02-04T06:58:35;57013.78;;;-145.60;100.00
4199;BME280;2113;50.946;14.610;2023-02-04T07:01:04;57013.78;;;-145.60;100.00
4199;BME280;2113;50.946;14.610;2023-02-04T07:03:32;57013.78;;;-145.60;100.00
4199;BME280;2113;50.946;14.610;2023-02-04T07:06:01;57013.78;;;-145.60;100.00
4199;BME280;2113;50.946;14.610;2023-02-04T07:08:30;57013.78;;;-145.60;100.00
4199;BME280;2113;50.946;14.610;2023-02-04T07:10:59;57013.78;;;-145.60;100.00
4199;BME280;2113;50.946;14.610;2023-02-04T07:13:28;57013.78;;;-145.60;100.00
4199;BME280;2113;50.946;14.610;2023-02-04T07:15:58;57013.78;;;-145.60;100.00
4199;BME280;2113;50.946;14.610;2023-02-04T07:18:27;57013.78;;;-145.60;100.00
4199;BME280;2113;50.946;14.610;2023-02-04T07:20:55;57013.78;;;-145.60;100.00
4199;BME280;2113;50.946;14.610;2023-02-04T07:23:24;57013.78;;;-145.60;100.00
4199;BME280;2113;50.946;14.610;2023-02-04T07:25:54;57013.78;;;-145.60;100.00
4199;BME280;2113;50.946;14.610;2023-02-04T07:28:25;57013.78;;;-145.60;100.00
4199;BME280;2113;50.946;14.610;2023-02-04T07:30:54;57013.78;;;-145.60;100.00
4199;BME280;2113;50.946;14.610;2023-02-04T07:33:25;57013.78;;;-145.60;100.00
4199;BME280;2113;50.946;14.610;2023-02-04T07:35:53;57013.78;;;-145.60;100.00
4199;BME280;2113;50.946;14.610;2023-02-04T07:38:22;57013.78;;;-145.60;100.00
4199;BME280;2113;50.946;14.610;2023-02-04T07:40:50;57013.78;;;-145.60;100.00
4199;BME280;2113;50.946;14.610;2023-02-04T07:43:19;57013.78;;;-145.60;100.00
4199;BME280;2113;50.946;14.610;2023-02-04T07:45:47;57013.78;;;-145.60;100.00
4199;BME280;2113;50.946;14.610;2023-02-04T07:48:15;57013.78;;;-145.60;100.00
4199;BME280;2113;50.946;14.610;2023-02-04T07:50:46;57013.78;;;-145.60;100.00
4199;BME280;2113;50.946;14.610;2023-02-04T07:53:14;57013.78;;;-145.60;100.00
4199;BME280;2113;50.946;14.610;2023-02-04T07:55:42;57013.78;;;-145.60;100.00
4199;BME280;2113;50.946;14.610;2023-02-04T07:58:11;57013.78;;;-145.60;100.00
4199;BME280;2113;50.946;14.610;2023-02-04T08:00:40;57013.78;;;-145.60;100.00
4199;BME280;2113;50.946;14.610;2023-02-04T08:03:09;57013.78;;;-145.60;100.00
4199;BME280;2113;50.946;14.610;2023-02-04T08:05:40;57013.78;;;-145.60;100.00
4199;BME280;2113;50.946;14.610;2023-02-04T08:08:10;57013.78;;;-145.60;100.00
4199;BME280;2113;50.946;14.610;2023-02-04T08:10:39;57013.78;;;-145.60;100.00
4199;BME280;2113;50.946;14.610;2023-02-04T08:13:07;57013.78;;;-145.60;100.00
4199;BME280;2113;50.946;14.610;2023-02-04T08:15:36;57013.78;;;-145.60;100.00
4199;BME280;2113;50.946;14.610;2023-02-04T08:18:05;57013.78;;;-145.60;100.00
4199;BME280;2113;50.946;14.610;2023-02-04T08:20:33;57013.78;;;-145.60;100.00
4199;BME280;2113;50.946;14.610;2023-02-04T08:23:02;57013.78;;;-145.60;100.00
4199;BME280;2113;50.946;14.610;2023-02-04T08:25:32;57013.78;;;-145.60;100.00
4199;BME280;2113;50.946;14.610;2023-02-04T08:28:01;57013.78;;;-145.60;100.00
4199;BME280;2113;50.946;14.610;2023-02-04T08:30:30;57013.78;;;-145.60;100.00
4199;BME280;2113;50.946;14.610;2023-02-04T08:33:01;57013.78;;;-145.60;100.00
4199;BME280;2113;50.946;14.610;2023-02-04T08:35:30;57013.78;;;-145.60;100.00
4199;BME280;2113;50.946;14.610;2023-02-04T08:37:59;57013.78;;;-145.60;100.00
4199;BME280;2113;50.946;14.610;2023-02-04T08:40:28;57013.78;;;-145.60;100.00
4199;BME280;2113;50.946;14.610;2023-02-04T08:42:58;57013.78;;;-145.60;100.00
4199;BME280;2113;50.946;14.610;2023-02-04T08:45:27;57013.78;;;-145.60;100.00
4199;BME280;2113;50.946;14.610;2023-02-04T08:47:55;57013.78;;;-145.60;100.00
4199;BME280;2113;50.946;14.610;2023-02-04T08:50:24;57013.78;;;-145.60;100.00
4199;BME280;2113;50.946;14.610;2023-02-04T08:52:55;57013.78;;;-145.60;100.00
4199;BME280;2113;50.946;14.610;2023-02-04T08:55:24;57013.78;;;-145.60;100.00
4199;BME280;2113;50.946;14.610;2023-02-04T08:57:53;57013.78;;;-145.60;100.00
4199;BME280;2113;50.946;14.610;2023-02-04T09:00:23;57013.78;;;-145.60;100.00
4199;BME280;2113;50.946;14.610;2023-02-04T09:02:52;57013.78;;;-145.60;100.00
4199;BME280;2113;50.946;14.610;2023-02-04T09:05:21;57013.78;;;-145.60;100.00
4199;BME280;2113;50.946;14.610;2023-02-04T09:07:49;57013.78;;;-145.60;100.00
4199;BME280;2113;50.946;14.610;2023-02-04T09:10:18;57013.78;;;-145.60;100.00
4199;BME280;2113;50.946;14.610;2023-02-04T09:12:46;57013.78;;;-145.60;100.00
4199;BME280;2113;50.946;14.610;2023-02-04T09:15:15;57013.78;;;-145.60;100.00
4199;BME280;2113;50.946;14.610;2023-02-04T09:17:46;57013.78;;;-145.60;100.00
4199;BME280;2113;50.946;14.610;2023-02-04T09:20:14;57013.78;;;-145.60;100.00
4199;BME280;2113;50.946;14.610;2023-02-04T09:22:43;57013.78;;;-145.60;100.00
4199;BME280;2113;50.946;14.610;2023-02-04T09:25:11;57013.78;;;-145.60;100.00
4199;BME280;2113;50.946;14.610;2023-02-04T09:27:40;57013.78;;;-145.60;100.00
4199;BME280;2113;50.946;14.610;2023-02-04T09:30:09;57013.78;;;-145.60;100.00
4199;BME280;2113;50.946;14.610;2023-02-04T09:32:38;57013.78;;;-145.60;100.00
4199;BME280;2113;50.946;14.610;2023-02-04T09:35:08;57013.78;;;-145.60;100.00
4199;BME280;2113;50.946;14.610;2023-02-04T09:37:37;57013.78;;;-145.60;100.00
4199;BME280;2113;50.946;14.610;2023-02-04T09:40:06;57013.78;;;-145.60;100.00
4199;BME280;2113;50.946;14.610;2023-02-04T09:42:35;57013.78;;;-145.60;100.00
4199;BME280;2113;50.946;14.610;2023-02-04T09:45:04;57013.78;;;-145.60;100.00
4199;BME280;2113;50.946;14.610;2023-02-04T09:47:33;57013.78;;;-145.60;100.00
4199;BME280;2113;50.946;14.610;2023-02-04T09:50:02;57013.78;;;-145.60;100.00
4199;BME280;2113;50.946;14.610;2023-02-04T09:52:32;57013.78;;;-145.60;100.00
4199;BME280;2113;50.946;14.610;2023-02-04T09:55:01;57013.78;;;-145.60;100.00
4199;BME280;2113;50.946;14.610;2023-02-04T09:57:30;57013.78;;;-145.60;100.00
4199;BME280;2113;50.946;14.610;2023-02-04T09:59:58;57013.78;;;-145.60;100.00
4199;BME280;2113;50.946;14.610;2023-02-04T10:02:28;57013.78;;;-145.60;100.00
4199;BME280;2113;50.946;14.610;2023-02-04T10:04:57;57013.78;;;-145.60;100.00
4199;BME280;2113;50.946;14.610;2023-02-04T10:07:26;57013.78;;;-145.60;100.00
4199;BME280;2113;50.946;14.610;2023-02-04T10:09:57;57013.78;;;-145.60;100.00
4199;BME280;2113;50.946;14.610;2023-02-04T10:12:26;57013.78;;;-145.60;100.00
4199;BME280;2113;50.946;14.610;2023-02-04T10:14:55;57013.78;;;-145.60;100.00
4199;BME280;2113;50.946;14.610;2023-02-04T10:17:24;57013.78;;;-145.60;100.00
4199;BME280;2113;50.946;14.610;2023-02-04T10:19:53;57013.78;;;-145.60;100.00
4199;BME280;2113;50.946;14.610;2023-02-04T10:22:23;57013.78;;;-145.60;100.00
4199;BME280;2113;50.946;14.610;2023-02-04T10:24:51;57013.78;;;-145.60;100.00
4199;BME280;2113;50.946;14.610;2023-02-04T10:27:21;57013.78;;;-145.60;100.00
4199;BME280;2113;50.946;14.610;2023-02-04T10:29:56;57013.78;;;-145.60;100.00
4199;BME280;2113;50.946;14.610;2023-02-04T10:32:28;57013.78;;;-145.60;100.00
4199;BME280;2113;50.946;14.610;2023-02-04T10:34:58;57013.78;;;-145.60;100.00
4199;BME280;2113;50.946;14.610;2023-02-04T10:37:27;57013.78;;;-145.60;100.00
4199;BME280;2113;50.946;14.610;2023-02-04T10:39:57;57013.78;;;-145.60;100.00
4199;BME280;2113;50.946;14.610;2023-02-04T10:42:28;98666.50;;;6.01;47.01
4199;BME280;2113;50.946;14.610;2023-02-04T10:44:57;57013.78;;;-145.60;100.00
4199;BME280;2113;50.946;14.610;2023-02-04T10:47:27;57013.78;;;-145.60;100.00
4199;BME280;2113;50.946;14.610;2023-02-04T10:50:00;57013.78;;;-145.60;100.00
4199;BME280;2113;50.946;14.610;2023-02-04T10:52:34;57013.78;;;-145.60;100.00
4199;BME280;2113;50.946;14.610;2023-02-04T10:55:07;57013.78;;;-145.60;100.00
4199;BME280;2113;50.946;14.610;2023-02-04T10:57:43;57013.78;;;-145.60;100.00
4199;BME280;2113;50.946;14.610;2023-02-04T11:00:16;57013.78;;;-145.60;100.00
4199;BME280;2113;50.946;14.610;2023-02-04T11:02:55;57013.78;;;-145.60;100.00
4199;BME280;2113;50.946;14.610;2023-02-04T11:05:28;57013.78;;;-145.60;100.00
4199;BME280;2113;50.946;14.610;2023-02-04T11:07:58;57013.78;;;-145.60;100.00
4199;BME280;2113;50.946;14.610;2023-02-04T11:10:29;57013.78;;;-145.60;100.00
4199;BME280;2113;50.946;14.610;2023-02-04T11:13:02;57013.78;;;-145.60;100.00
4199;BME280;2113;50.946;14.610;2023-02-04T11:15:38;57013.78;;;-145.60;100.00
4199;BME280;2113;50.946;14.610;2023-02-04T11:18:08;57013.78;;;-145.60;100.00
4199;BME280;2113;50.946;14.610;2023-02-04T11:20:38;57013.78;;;-145.60;100.00
4199;BME280;2113;50.946;14.610;2023-02-04T11:23:32;57013.78;;;-145.60;100.00
4199;BME280;2113;50.946;14.610;2023-02-04T11:26:03;57013.78;;;-145.60;100.00
4199;BME280;2113;50.946;14.610;2023-02-04T11:29:05;57013.78;;;-145.60;100.00
4199;BME280;2113;50.946;14.610;2023-02-04T11:31:42;57013.78;;;-145.60;100.00
4199;BME280;2113;50.946;14.610;2023-02-04T11:34:24;57013.78;;;-145.60;100.00
4199;BME280;2113;50.946;14.610;2023-02-04T11:37:09;57013.78;;;-145.60;100.00
4199;BME280;2113;50.946;14.610;2023-02-04T11:39:42;57013.78;;;-145.60;100.00
4199;BME280;2113;50.946;14.610;2023-02-04T11:42:19;57013.78;;;-145.60;100.00
4199;BME280;2113;50.946;14.610;2023-02-04T11:44:50;57013.78;;;-145.60;100.00
4199;BME280;2113;50.946;14.610;2023-02-04T11:47:21;57013.78;;;-145.60;100.00
4199;BME280;2113;50.946;14.610;2023-02-04T11:49:55;57013.78;;;-145.60;100.00
4199;BME280;2113;50.946;14.610;2023-02-04T11:52:28;57013.78;;;-145.60;100.00
4199;BME280;2113;50.946;14.610;2023-02-04T11:54:58;57013.78;;;-145.60;100.00
4199;BME280;2113;50.946;14.610;2023-02-04T11:57:27;57013.78;;;-145.60;100.00
4199;BME280;2113;50.946;14.610;2023-02-04T11:59:58;57013.78;;;-145.60;100.00
4199;BME280;2113;50.946;14.610;2023-02-04T12:02:41;57013.78;;;-145.60;100.00
4199;BME280;2113;50.946;14.610;2023-02-04T12:05:14;57013.78;;;-145.60;100.00
4199;BME280;2113;50.946;14.610;2023-02-04T12:07:43;57013.78;;;-145.60;100.00
4199;BME280;2113;50.946;14.610;2023-02-04T12:10:18;57013.78;;;-145.60;100.00
4199;BME280;2113;50.946;14.610;2023-02-04T12:12:52;57013.78;;;-145.60;100.00
4199;BME280;2113;50.946;14.610;2023-02-04T12:15:31;57013.78;;;-145.60;100.00
4199;BME280;2113;50.946;14.610;2023-02-04T12:18:04;57013.78;;;-145.60;100.00
4199;BME280;2113;50.946;14.610;2023-02-04T12:20:34;57013.78;;;-145.60;100.00
4199;BME280;2113;50.946;14.610;2023-02-04T12:23:03;57013.78;;;-145.60;100.00
4199;BME280;2113;50.946;14.610;2023-02-04T12:25:33;57013.78;;;-145.60;100.00
4199;BME280;2113;50.946;14.610;2023-02-04T12:28:01;57013.78;;;-145.60;100.00
4199;BME280;2113;50.946;14.610;2023-02-04T12:30:32;57013.78;;;-145.60;100.00
4199;BME280;2113;50.946;14.610;2023-02-04T12:33:02;57013.78;;;-145.60;100.00
4199;BME280;2113;50.946;14.610;2023-02-04T12:35:31;57013.78;;;-145.60;100.00
4199;BME280;2113;50.946;14.610;2023-02-04T12:38:00;57013.78;;;-145.60;100.00
4199;BME280;2113;50.946;14.610;2023-02-04T12:40:30;57013.78;;;-145.60;100.00
4199;BME280;2113;50.946;14.610;2023-02-04T12:42:59;57013.78;;;-145.60;100.00
4199;BME280;2113;50.946;14.610;2023-02-04T12:45:27;57013.78;;;-145.60;100.00
4199;BME280;2113;50.946;14.610;2023-02-04T12:47:57;57013.78;;;-145.60;100.00
4199;BME280;2113;50.946;14.610;2023-02-04T12:50:27;57013.78;;;-145.60;100.00
4199;BME280;2113;50.946;14.610;2023-02-04T12:52:57;57013.78;;;-145.60;100.00
4199;BME280;2113;50.946;14.610;2023-02-04T12:55:27;57013.78;;;-145.60;100.00